createdAt,value
2023-06-28T00:02:37.102Z,49.87
2023-06-28T00:05:40.080Z,49.81
2023-06-28T00:08:42.929Z,49.99
2023-06-28T00:11:47.724Z,49.92
2023-06-28T00:14:50.547Z,49.86
2023-06-28T00:17:54.096Z,49.77
2023-06-28T00:20:57.012Z,49.80
2023-06-28T00:24:01.241Z,49.79
2023-06-28T00:27:06.017Z,50.07
2023-06-28T00:30:10.334Z,49.95
2023-06-28T00:33:13.603Z,49.77
2023-06-28T00:36:16.496Z,49.71
2023-06-28T00:39:19.665Z,49.74
2023-06-28T00:42:23.940Z,49.96
2023-06-28T00:45:26.980Z,49.96
2023-06-28T00:48:30.229Z,49.76
2023-06-28T00:51:36.626Z,49.94
2023-06-28T00:54:40.065Z,50.05
2023-06-28T00:57:44.730Z,49.62
2023-06-28T01:00:49.872Z,49.64
2023-06-28T01:03:54.705Z,49.81
2023-06-28T01:10:04.840Z,49.84
2023-06-28T01:16:12.117Z,49.68
2023-06-28T01:19:15.594Z,49.62
2023-06-28T01:25:22.735Z,49.70
2023-06-28T01:28:25.757Z,49.74
2023-06-28T01:31:30.187Z,49.82
2023-06-28T01:34:33.266Z,49.70
2023-06-28T01:37:36.892Z,49.81
2023-06-28T01:40:42.239Z,49.87
2023-06-28T01:43:45.611Z,49.45
2023-06-28T01:46:49.270Z,49.53
2023-06-28T01:49:52.610Z,49.58
2023-06-28T01:52:56.125Z,49.76
2023-06-28T01:56:00.646Z,49.61
2023-06-28T01:59:06.040Z,49.84
2023-06-28T02:02:09.215Z,49.70
2023-06-28T02:05:12.244Z,49.44
2023-06-28T02:08:18.103Z,49.81
2023-06-28T02:11:22.332Z,49.56
2023-06-28T02:14:25.251Z,49.47
2023-06-28T02:17:28.958Z,49.70
2023-06-28T02:20:31.942Z,49.30
2023-06-28T02:23:34.817Z,49.58
2023-06-28T02:26:39.120Z,49.55
2023-06-28T02:29:42.263Z,49.48
2023-06-28T02:32:45.205Z,49.48
2023-06-28T02:35:50.122Z,49.41
2023-06-28T02:38:52.987Z,49.52
2023-06-28T02:41:57.268Z,49.66
2023-06-28T02:45:00.188Z,49.39
2023-06-28T02:48:03.139Z,49.41
2023-06-28T02:51:07.053Z,49.66
2023-06-28T02:54:10.287Z,49.62
2023-06-28T02:57:15.009Z,49.53
2023-06-28T03:00:29.632Z,49.57
2023-06-28T03:03:35.344Z,49.48
2023-06-28T03:06:38.370Z,49.29
2023-06-28T03:09:41.245Z,49.66
2023-06-28T03:12:45.904Z,49.38
2023-06-28T03:15:48.838Z,49.44
2023-06-28T03:18:55.621Z,49.51
2023-06-28T03:21:58.515Z,49.65
2023-06-28T03:25:01.395Z,49.39
2023-06-28T03:28:05.847Z,49.62
2023-06-28T03:31:08.772Z,49.51
2023-06-28T03:34:11.665Z,49.66
2023-06-28T03:37:17.419Z,49.56
2023-06-28T03:40:20.482Z,49.47
2023-06-28T03:43:24.793Z,49.51
2023-06-28T03:46:28.747Z,49.60
2023-06-28T03:49:31.680Z,49.50
2023-06-28T03:52:34.568Z,49.33
2023-06-28T03:55:38.277Z,49.55
2023-06-28T03:58:42.574Z,49.41
2023-06-28T04:01:48.058Z,49.50
2023-06-28T04:04:51.606Z,49.62
2023-06-28T04:07:58.807Z,49.39
2023-06-28T04:11:01.854Z,49.66
2023-06-28T04:14:06.167Z,49.55
2023-06-28T04:17:09.073Z,49.36
2023-06-28T04:20:13.256Z,49.35
2023-06-28T04:23:16.219Z,49.42
2023-06-28T04:26:20.591Z,49.67
2023-06-28T04:29:24.804Z,49.80
2023-06-28T04:32:28.852Z,49.54
2023-06-28T04:35:31.953Z,49.39
2023-06-28T04:38:34.989Z,49.81
2023-06-28T04:41:37.858Z,49.71
2023-06-28T04:44:42.891Z,49.46
2023-06-28T04:47:45.770Z,49.70
2023-06-28T04:50:48.741Z,49.61
2023-06-28T04:53:51.711Z,49.50
2023-06-28T04:56:54.573Z,49.60
2023-06-28T04:59:58.837Z,49.67
2023-06-28T05:03:02.429Z,49.50
2023-06-28T05:06:07.205Z,49.48
2023-06-28T05:09:10.024Z,49.50
2023-06-28T05:12:12.924Z,49.49
2023-06-28T05:15:17.328Z,49.57
2023-06-28T05:18:20.250Z,49.54
2023-06-28T05:21:23.114Z,49.44
2023-06-28T05:24:26.026Z,49.39
2023-06-28T05:27:28.881Z,49.46
2023-06-28T05:30:33.127Z,49.18
2023-06-28T05:33:35.953Z,49.44
2023-06-28T05:36:39.190Z,49.21
2023-06-28T05:39:42.930Z,49.08
2023-06-28T05:42:45.769Z,49.46
2023-06-28T05:45:51.036Z,49.08
2023-06-28T05:48:54.335Z,49.47
2023-06-28T05:51:57.263Z,49.22
2023-06-28T05:55:00.153Z,49.21
2023-06-28T05:58:03.005Z,49.35
2023-06-28T06:01:08.080Z,49.40
2023-06-28T06:04:11.499Z,49.26
2023-06-28T06:07:14.601Z,49.67
2023-06-28T06:10:17.522Z,49.65
2023-06-28T06:13:20.397Z,49.62
2023-06-28T06:16:24.646Z,49.51
2023-06-28T06:19:27.519Z,49.87
2023-06-28T06:22:30.362Z,50.04
2023-06-28T06:25:33.191Z,49.84
2023-06-28T06:28:36.065Z,49.82
2023-06-28T06:31:40.534Z,49.56
2023-06-28T06:34:44.174Z,49.51
2023-06-28T06:37:47.329Z,49.76
2023-06-28T06:40:50.370Z,49.46
2023-06-28T06:43:53.365Z,49.59
2023-06-28T06:46:57.586Z,49.44
2023-06-28T06:50:00.532Z,49.70
2023-06-28T06:53:03.428Z,49.48
2023-06-28T06:56:07.054Z,49.46
2023-06-28T06:59:09.925Z,49.54
2023-06-28T07:02:14.138Z,49.81
2023-06-28T07:05:17.114Z,49.62
2023-06-28T07:08:20.250Z,49.82
2023-06-28T07:11:23.063Z,49.48
2023-06-28T07:14:26.140Z,49.44
2023-06-28T07:17:32.054Z,49.60
2023-06-28T07:20:35.085Z,49.68
2023-06-28T07:23:37.939Z,49.72
2023-06-28T07:26:40.816Z,50.06
2023-06-28T07:29:43.709Z,49.56
2023-06-28T07:32:48.027Z,49.48
2023-06-28T07:35:51.366Z,49.69
2023-06-28T07:38:54.246Z,49.28
2023-06-28T07:41:57.127Z,49.45
2023-06-28T07:45:00.049Z,49.55
2023-06-28T07:48:04.454Z,49.30
2023-06-28T07:51:07.459Z,49.54
2023-06-28T07:54:20.255Z,49.38
2023-06-28T07:57:27.350Z,49.51
2023-06-28T08:00:32.206Z,48.35
2023-06-28T08:03:36.613Z,48.05
2023-06-28T08:06:39.567Z,48.56
2023-06-28T08:09:42.485Z,48.80
2023-06-28T08:12:45.353Z,48.75
2023-06-28T08:15:48.197Z,48.85
2023-06-28T08:18:52.391Z,48.68
2023-06-28T08:21:55.312Z,48.95
2023-06-28T08:24:58.135Z,49.02
2023-06-28T08:28:00.956Z,48.98
2023-06-28T08:31:04.024Z,49.03
2023-06-28T08:34:08.329Z,49.01
2023-06-28T08:37:11.196Z,48.73
2023-06-28T08:40:14.217Z,49.06
2023-06-28T08:43:18.717Z,48.91
2023-06-28T08:46:23.134Z,49.10
2023-06-28T08:49:28.087Z,48.78
2023-06-28T08:52:31.938Z,49.00
2023-06-28T08:55:34.998Z,49.09
2023-06-28T08:58:38.473Z,49.08
2023-06-28T09:01:41.481Z,49.15
2023-06-28T09:04:45.982Z,49.04
2023-06-28T09:07:49.808Z,49.15
2023-06-28T09:13:55.735Z,49.22
2023-06-28T09:16:58.650Z,48.93
2023-06-28T09:20:18.695Z,47.96
2023-06-28T09:23:26.058Z,47.31
2023-06-28T09:26:31.824Z,48.22
2023-06-28T09:29:35.001Z,48.28
2023-06-28T09:32:41.304Z,47.49
2023-06-28T09:35:46.287Z,47.66
2023-06-28T09:38:49.429Z,47.84
2023-06-28T09:41:52.498Z,47.72
2023-06-28T09:44:57.476Z,47.85
2023-06-28T09:48:01.734Z,47.74
2023-06-28T09:51:08.013Z,47.41
2023-06-28T09:54:10.897Z,47.79
2023-06-28T09:57:14.074Z,48.07
2023-06-28T10:00:18.353Z,47.73
2023-06-28T10:03:26.894Z,47.89
2023-06-28T10:06:35.456Z,47.37
2023-06-28T10:09:39.937Z,47.65
2023-06-28T10:12:43.800Z,47.53
2023-06-28T10:15:53.223Z,47.80
2023-06-28T10:18:56.574Z,47.79
2023-06-28T10:22:01.164Z,47.50
2023-06-28T10:25:04.748Z,47.45
2023-06-28T10:28:07.742Z,47.44
2023-06-28T10:31:10.826Z,46.89
2023-06-28T10:34:16.898Z,47.49
2023-06-28T10:37:23.610Z,47.44
2023-06-28T10:40:27.403Z,47.97
2023-06-28T10:43:32.240Z,47.67
2023-06-28T10:46:37.421Z,47.52
2023-06-28T10:49:42.832Z,47.66
2023-06-28T10:52:51.381Z,47.48
2023-06-28T10:56:14.412Z,47.15
2023-06-28T10:59:17.938Z,47.52
2023-06-28T11:02:53.707Z,47.66
2023-06-28T11:05:57.295Z,47.53
2023-06-28T11:09:14.760Z,47.62
2023-06-28T11:12:21.500Z,47.42
2023-06-28T11:15:30.333Z,47.29
2023-06-28T11:18:33.508Z,47.78
2023-06-28T11:21:37.119Z,47.31
2023-06-28T11:24:45.855Z,47.81
2023-06-28T11:27:48.989Z,48.64
2023-06-28T11:30:53.188Z,48.32
2023-06-28T11:33:56.604Z,48.44
2023-06-28T11:36:59.859Z,47.81
2023-06-28T11:40:04.992Z,47.40
2023-06-28T11:43:07.804Z,47.52
2023-06-28T11:46:10.841Z,47.36
2023-06-28T11:49:15.556Z,47.65
2023-06-28T11:52:18.957Z,48.39
2023-06-28T11:55:23.251Z,47.25
2023-06-28T11:58:31.058Z,47.57
2023-06-28T12:01:33.898Z,47.55
2023-06-28T12:04:38.537Z,47.57
2023-06-28T12:07:41.559Z,47.54
2023-06-28T12:10:45.842Z,47.63
2023-06-28T12:13:48.681Z,47.80
2023-06-28T12:16:52.550Z,47.61
2023-06-28T12:19:56.089Z,47.38
2023-06-28T12:22:59.133Z,47.75
2023-06-28T12:26:03.413Z,47.61
2023-06-28T12:29:08.550Z,47.01
2023-06-28T12:32:16.058Z,46.92
2023-06-28T12:35:23.616Z,47.09
2023-06-28T12:38:26.460Z,47.20
2023-06-28T12:41:30.715Z,46.72
2023-06-28T12:44:49.692Z,46.95
2023-06-28T12:47:52.665Z,46.96
2023-06-28T12:50:56.681Z,47.00
2023-06-28T12:53:59.528Z,47.12
2023-06-28T12:57:04.437Z,46.99
2023-06-28T13:00:08.774Z,47.30
2023-06-28T13:03:13.882Z,47.40
2023-06-28T13:06:16.742Z,47.42
2023-06-28T13:09:21.473Z,47.09
2023-06-28T13:12:25.829Z,47.26
2023-06-28T13:15:30.105Z,46.73
2023-06-28T13:18:32.980Z,47.16
2023-06-28T13:21:35.952Z,47.03
2023-06-28T13:24:38.913Z,47.06
2023-06-28T13:27:43.158Z,46.84
2023-06-28T13:30:46.002Z,47.08
2023-06-28T13:33:48.892Z,46.83
2023-06-28T13:36:51.812Z,46.99
2023-06-28T13:39:54.697Z,46.57
2023-06-28T13:42:58.942Z,46.60
2023-06-28T13:46:01.812Z,46.94
2023-06-28T13:49:04.981Z,47.03
2023-06-28T13:52:08.384Z,46.59
2023-06-28T13:55:11.372Z,46.58
2023-06-28T13:58:15.649Z,46.71
2023-06-28T14:01:18.530Z,46.75
2023-06-28T14:04:21.461Z,46.53
2023-06-28T14:07:24.600Z,46.81
2023-06-28T14:10:27.834Z,46.75
2023-06-28T14:13:32.189Z,47.03
2023-06-28T14:16:35.070Z,46.92
2023-06-28T14:19:37.978Z,46.45
2023-06-28T14:22:40.805Z,46.64
2023-06-28T14:25:43.967Z,46.41
2023-06-28T14:28:48.370Z,46.43
2023-06-28T14:31:51.409Z,46.64
2023-06-28T14:34:54.409Z,46.13
2023-06-28T14:37:57.342Z,46.55
2023-06-28T14:41:00.204Z,46.39
2023-06-28T14:44:04.826Z,45.96
2023-06-28T14:47:07.806Z,45.95
2023-06-28T14:50:12.596Z,45.86
2023-06-28T14:53:15.549Z,45.70
2023-06-28T14:56:18.441Z,45.70
2023-06-28T14:59:24.905Z,46.17
2023-06-28T15:02:27.874Z,45.66
2023-06-28T15:05:30.995Z,45.92
2023-06-28T15:08:34.198Z,46.21
2023-06-28T15:11:37.099Z,45.57
2023-06-28T15:14:41.358Z,45.45
2023-06-28T15:17:44.267Z,45.43
2023-06-28T15:20:47.259Z,45.58
2023-06-28T15:23:50.149Z,45.48
2023-06-28T15:26:54.697Z,45.41
2023-06-28T15:29:59.039Z,45.52
2023-06-28T15:33:02.044Z,45.75
2023-06-28T15:36:05.312Z,45.82
2023-06-28T15:39:08.692Z,45.71
2023-06-28T15:42:11.561Z,45.66
2023-06-28T15:45:15.827Z,45.55
2023-06-28T15:48:18.697Z,45.60
2023-06-28T15:51:21.635Z,45.20
2023-06-28T15:54:24.501Z,44.91
2023-06-28T15:57:27.405Z,44.98
2023-06-28T16:00:31.547Z,45.05
2023-06-28T16:03:34.464Z,44.64
2023-06-28T16:06:38.078Z,45.12
2023-06-28T16:09:40.967Z,45.17
2023-06-28T16:12:43.982Z,45.11
2023-06-28T16:15:48.191Z,45.24
2023-06-28T16:18:51.112Z,45.49
2023-06-28T16:21:54.022Z,45.71
2023-06-28T16:24:56.920Z,45.82
2023-06-28T16:28:01.019Z,45.68
2023-06-28T16:31:05.243Z,45.88
2023-06-28T16:34:08.131Z,46.01
2023-06-28T16:37:11.050Z,45.79
2023-06-28T16:40:15.128Z,45.12
2023-06-28T16:43:17.984Z,45.62
2023-06-28T16:46:22.180Z,45.64
2023-06-28T16:49:25.134Z,46.06
2023-06-28T16:52:28.060Z,45.63
2023-06-28T16:55:30.935Z,45.40
2023-06-28T16:58:33.869Z,45.60
2023-06-28T17:01:38.059Z,45.47
2023-06-28T17:04:41.208Z,45.63
2023-06-28T17:07:44.134Z,45.61
2023-06-28T17:10:47.582Z,45.73
2023-06-28T17:13:50.427Z,45.41
2023-06-28T17:16:54.685Z,45.56
2023-06-28T17:19:57.515Z,45.20
2023-06-28T17:23:00.358Z,45.75
2023-06-28T17:26:03.824Z,44.95
2023-06-28T17:29:09.558Z,45.01
2023-06-28T17:32:13.768Z,45.05
2023-06-28T17:35:16.691Z,45.26
2023-06-28T17:38:19.560Z,46.13
2023-06-28T17:41:22.427Z,45.28
2023-06-28T17:44:25.298Z,45.48
2023-06-28T17:47:29.494Z,45.69
2023-06-28T17:50:32.367Z,45.44
2023-06-28T17:53:35.793Z,45.12
2023-06-28T17:56:38.843Z,45.25
2023-06-28T17:59:41.813Z,44.86
2023-06-28T18:02:46.026Z,44.73
2023-06-28T18:05:49.028Z,44.46
2023-06-28T18:08:52.083Z,44.41
2023-06-28T18:11:54.992Z,44.85
2023-06-28T18:14:58.019Z,44.64
2023-06-28T18:18:02.337Z,44.74
2023-06-28T18:21:05.466Z,44.87
2023-06-28T18:24:08.869Z,44.83
2023-06-28T18:27:11.691Z,45.07
2023-06-28T18:30:14.873Z,44.95
2023-06-28T18:33:20.632Z,45.40
2023-06-28T18:36:24.764Z,45.48
2023-06-28T18:39:28.724Z,45.41
2023-06-28T18:42:31.579Z,45.13
2023-06-28T18:45:34.431Z,45.25
2023-06-28T18:48:38.626Z,45.26
2023-06-28T18:51:41.456Z,45.37
2023-06-28T18:54:45.174Z,45.58
2023-06-28T18:57:48.161Z,45.51
2023-06-28T19:00:51.347Z,45.17
2023-06-28T19:03:58.628Z,45.44
2023-06-28T19:07:01.842Z,45.21
2023-06-28T19:10:05.976Z,45.33
2023-06-28T19:13:10.147Z,45.30
2023-06-28T19:16:13.574Z,45.64
2023-06-28T19:19:19.249Z,46.66
2023-06-28T19:22:22.178Z,46.47
2023-06-28T19:25:25.045Z,46.01
2023-06-28T19:28:27.938Z,45.86
2023-06-28T19:31:31.336Z,46.14
2023-06-28T19:34:36.134Z,46.28
2023-06-28T19:37:38.980Z,45.95
2023-06-28T19:40:42.075Z,46.05
2023-06-28T19:43:45.096Z,46.34
2023-06-28T19:46:48.066Z,46.10
2023-06-28T19:49:52.299Z,46.44
2023-06-28T19:52:55.131Z,46.62
2023-06-28T19:55:58.126Z,46.34
2023-06-28T19:59:00.946Z,46.55
2023-06-28T20:02:03.861Z,46.71
2023-06-28T20:05:09.012Z,46.83
2023-06-28T20:08:11.997Z,46.90
2023-06-28T20:11:15.431Z,46.62
2023-06-28T20:14:18.467Z,46.99
2023-06-28T20:17:21.812Z,46.88
2023-06-28T20:20:26.147Z,46.95
2023-06-28T20:23:28.961Z,47.01
2023-06-28T20:26:31.861Z,47.05
2023-06-28T20:29:35.227Z,47.21
2023-06-28T20:32:38.585Z,47.54
2023-06-28T20:35:45.281Z,47.32
2023-06-28T20:38:49.105Z,47.61
2023-06-28T20:41:53.275Z,47.59
2023-06-28T20:44:56.760Z,47.34
2023-06-28T20:47:59.734Z,47.59
2023-06-28T20:51:04.486Z,47.64
2023-06-28T20:54:07.400Z,47.60
2023-06-28T20:57:10.267Z,47.49
2023-06-28T21:00:16.663Z,47.82
2023-06-28T21:03:19.633Z,47.63
2023-06-28T21:06:23.888Z,47.64
2023-06-28T21:09:27.034Z,47.84
2023-06-28T21:12:31.706Z,47.54
2023-06-28T21:15:34.560Z,47.58
2023-06-28T21:18:37.420Z,47.85
2023-06-28T21:21:43.787Z,47.68
2023-06-28T21:24:48.539Z,47.53
2023-06-28T21:27:51.804Z,47.73
2023-06-28T21:30:54.722Z,47.79
2023-06-28T21:33:58.133Z,47.80
2023-06-28T21:37:02.493Z,47.88
2023-06-28T21:40:06.149Z,47.56
2023-06-28T21:43:09.008Z,47.64
2023-06-28T21:46:11.840Z,47.64
2023-06-28T21:49:14.940Z,47.91
2023-06-28T21:52:19.652Z,47.78
2023-06-28T21:55:22.456Z,47.72
2023-06-28T21:58:25.329Z,47.90
2023-06-28T22:01:29.781Z,47.67
2023-06-28T22:04:34.583Z,47.73
2023-06-28T22:07:38.852Z,47.90
2023-06-28T22:10:41.765Z,47.80
2023-06-28T22:13:45.989Z,48.10
2023-06-28T22:16:49.439Z,48.41
2023-06-28T22:19:54.285Z,48.67
2023-06-28T22:22:58.496Z,48.75
2023-06-28T22:26:02.617Z,48.62
2023-06-28T22:29:05.546Z,49.02
2023-06-28T22:32:09.239Z,48.95
2023-06-28T22:35:12.106Z,48.75
2023-06-28T22:38:16.373Z,48.42
2023-06-28T22:41:19.402Z,48.56
2023-06-28T22:44:22.417Z,48.40
2023-06-28T22:47:25.350Z,48.19
2023-06-28T22:50:28.195Z,47.85
2023-06-28T22:53:32.473Z,48.14
2023-06-28T22:56:35.674Z,48.60
2023-06-28T22:59:38.568Z,48.47
2023-06-28T23:02:41.503Z,48.77
2023-06-28T23:05:46.225Z,48.78
2023-06-28T23:08:50.755Z,48.67
2023-06-28T23:11:53.694Z,48.49
2023-06-28T23:14:56.531Z,48.29
2023-06-28T23:18:00.583Z,48.21
2023-06-28T23:21:03.489Z,48.14
2023-06-28T23:24:08.242Z,48.43
2023-06-28T23:27:11.186Z,48.38
2023-06-28T23:30:14.710Z,48.12
2023-06-28T23:33:17.675Z,48.58
2023-06-28T23:36:20.808Z,48.50
2023-06-28T23:39:25.085Z,48.30
2023-06-28T23:42:27.917Z,48.33
2023-06-28T23:45:31.150Z,48.04
2023-06-28T23:48:35.808Z,48.01
2023-06-28T23:51:39.672Z,48.00
2023-06-28T23:54:45.600Z,47.75
2023-06-28T23:57:48.485Z,47.95
